createdAt,value
2022-12-03T00:01:20.999Z,101490.73
2022-12-03T00:03:48.587Z,101490.92
2022-12-03T00:06:17.682Z,101488.67
2022-12-03T00:08:45.180Z,101492.80
2022-12-03T00:11:12.648Z,101490.41
2022-12-03T00:13:40.154Z,101492.05
2022-12-03T00:16:07.776Z,101489.23
2022-12-03T00:18:35.262Z,101491.48
2022-12-03T00:21:02.804Z,101485.21
2022-12-03T00:23:30.270Z,101486.39
2022-12-03T00:25:58.891Z,101483.16
2022-12-03T00:28:26.344Z,101482.23
2022-12-03T00:30:54.289Z,101483.28
2022-12-03T00:33:22.636Z,101479.95
2022-12-03T00:35:50.124Z,101476.73
2022-12-03T00:38:17.907Z,101476.86
2022-12-03T00:40:45.433Z,101473.70
2022-12-03T00:43:12.991Z,101471.64
2022-12-03T00:45:40.485Z,101475.65
2022-12-03T00:48:07.982Z,101478.36
2022-12-03T00:50:35.496Z,101477.55
2022-12-03T00:53:03.117Z,101476.96
2022-12-03T00:55:30.872Z,101475.71
2022-12-03T00:57:58.414Z,101471.40
2022-12-03T01:00:25.850Z,101466.92
2022-12-03T01:02:54.089Z,101468.39
2022-12-03T01:05:21.816Z,101469.91
2022-12-03T01:07:49.395Z,101468.55
2022-12-03T01:10:17.616Z,101465.30
2022-12-03T01:12:45.607Z,101462.27
2022-12-03T01:15:13.250Z,101459.80
2022-12-03T01:17:40.749Z,101460.29
2022-12-03T01:20:10.079Z,101459.89
2022-12-03T01:22:37.789Z,101458.88
2022-12-03T01:25:06.157Z,101457.05
2022-12-03T01:27:33.684Z,101451.06
2022-12-03T01:30:01.170Z,101453.48
2022-12-03T01:32:28.667Z,101456.55
2022-12-03T01:34:56.831Z,101458.67
2022-12-03T01:37:26.866Z,101454.27
2022-12-03T01:39:54.552Z,101456.52
2022-12-03T01:42:26.225Z,101454.05
2022-12-03T01:44:56.880Z,101452.20
2022-12-03T01:47:29.857Z,101453.31
2022-12-03T01:50:21.179Z,101455.77
2022-12-03T01:52:49.223Z,101450.31
2022-12-03T01:55:21.205Z,101450.41
2022-12-03T01:57:52.657Z,101447.02
2022-12-03T02:00:23.299Z,101447.39
2022-12-03T02:02:55.038Z,101449.20
2022-12-03T02:05:26.439Z,101446.75
2022-12-03T02:07:54.309Z,101443.81
2022-12-03T02:10:30.777Z,101441.79
2022-12-03T02:13:03.135Z,101440.29
2022-12-03T02:15:30.867Z,101443.61
2022-12-03T02:17:58.481Z,101441.58
2022-12-03T02:20:26.148Z,101440.75
2022-12-03T02:22:56.617Z,101441.31
2022-12-03T02:25:34.526Z,101441.54
2022-12-03T02:28:03.887Z,101443.64
2022-12-03T02:30:32.357Z,101444.42
2022-12-03T02:33:00.975Z,101447.17
2022-12-03T02:35:31.469Z,101444.46
2022-12-03T02:38:05.935Z,101444.54
2022-12-03T02:40:34.513Z,101442.64
2022-12-03T02:43:04.084Z,101442.89
2022-12-03T02:45:39.621Z,101443.86
2022-12-03T02:48:16.063Z,101444.86
2022-12-03T02:50:54.393Z,101441.59
2022-12-03T02:53:30.824Z,101443.67
2022-12-03T02:56:01.504Z,101436.16
2022-12-03T02:58:32.762Z,101438.48
2022-12-03T03:01:01.834Z,101436.69
2022-12-03T03:03:32.393Z,101437.71
2022-12-03T03:06:02.000Z,101438.58
2022-12-03T03:08:30.843Z,101434.71
2022-12-03T03:11:01.395Z,101436.39
2022-12-03T03:13:31.108Z,101436.44
2022-12-03T03:15:59.318Z,101433.73
2022-12-03T03:18:26.972Z,101436.67
2022-12-03T03:20:54.603Z,101433.52
2022-12-03T03:23:23.966Z,101432.75
2022-12-03T03:26:07.332Z,101432.29
2022-12-03T03:28:38.997Z,101435.11
2022-12-03T03:31:09.973Z,101430.39
2022-12-03T03:33:43.513Z,101424.86
2022-12-03T03:36:12.176Z,101421.05
2022-12-03T03:38:41.269Z,101416.54
2022-12-03T03:41:10.880Z,101417.33
2022-12-03T03:43:40.399Z,101414.83
2022-12-03T03:46:09.158Z,101415.75
2022-12-03T03:48:37.169Z,101410.39
2022-12-03T03:51:09.533Z,101410.14
2022-12-03T03:53:41.291Z,101406.83
2022-12-03T03:56:09.669Z,101405.23
2022-12-03T03:58:38.168Z,101401.80
2022-12-03T04:01:05.961Z,101401.63
2022-12-03T04:03:34.514Z,101402.36
2022-12-03T04:06:02.348Z,101401.31
2022-12-03T04:08:30.710Z,101401.03
2022-12-03T04:11:14.209Z,101401.64
2022-12-03T04:13:41.666Z,101402.53
2022-12-03T04:16:09.181Z,101399.34
2022-12-03T04:18:42.803Z,101399.61
2022-12-03T04:21:27.445Z,101399.95
2022-12-03T04:23:55.231Z,101398.32
2022-12-03T04:26:38.828Z,101398.87
2022-12-03T04:29:06.400Z,101401.16
2022-12-03T04:31:50.021Z,101397.29
2022-12-03T04:34:33.684Z,101400.52
2022-12-03T04:37:01.395Z,101395.52
2022-12-03T04:39:29.043Z,101397.30
2022-12-03T04:41:56.704Z,101396.88
2022-12-03T04:44:40.194Z,101396.98
2022-12-03T04:47:16.227Z,101393.09
2022-12-03T04:49:46.535Z,101390.59
2022-12-03T04:52:16.244Z,101388.17
2022-12-03T04:54:43.926Z,101392.27
2022-12-03T04:57:12.012Z,101393.23
2022-12-03T04:59:40.019Z,101392.79
2022-12-03T05:02:07.962Z,101393.44
2022-12-03T05:04:35.877Z,101390.87
2022-12-03T05:07:03.617Z,101389.07
2022-12-03T05:09:31.276Z,101389.38
2022-12-03T05:11:58.836Z,101389.69
2022-12-03T05:14:26.287Z,101391.72
2022-12-03T05:16:53.833Z,101389.65
2022-12-03T05:19:41.459Z,101381.94
2022-12-03T05:22:08.947Z,101381.46
2022-12-03T05:24:36.430Z,101382.33
2022-12-03T05:27:04.054Z,101379.59
2022-12-03T05:29:31.524Z,101380.09
2022-12-03T05:31:58.976Z,101378.70
2022-12-03T05:34:26.512Z,101378.91
2022-12-03T05:36:53.970Z,101377.26
2022-12-03T05:39:21.966Z,101376.55
2022-12-03T05:42:05.439Z,101375.05
2022-12-03T05:44:32.922Z,101379.60
2022-12-03T05:47:00.578Z,101381.54
2022-12-03T05:49:28.083Z,101378.92
2022-12-03T05:51:58.700Z,101377.15
2022-12-03T05:54:26.500Z,101375.64
2022-12-03T05:56:53.966Z,101376.11
2022-12-03T05:59:21.486Z,101375.36
2022-12-03T06:01:49.043Z,101375.70
2022-12-03T06:04:16.512Z,101372.66
2022-12-03T06:06:44.051Z,101371.11
2022-12-03T06:09:11.614Z,101369.16
2022-12-03T06:11:40.297Z,101368.84
2022-12-03T06:14:08.362Z,101371.44
2022-12-03T06:16:35.860Z,101373.42
2022-12-03T06:19:03.368Z,101371.73
2022-12-03T06:21:30.945Z,101373.40
2022-12-03T06:23:58.498Z,101375.19
2022-12-03T06:26:25.963Z,101372.69
2022-12-03T06:28:53.415Z,101374.27
2022-12-03T06:31:21.017Z,101372.35
2022-12-03T06:33:48.578Z,101373.81
2022-12-03T06:36:21.399Z,101373.67
2022-12-03T06:38:50.493Z,101373.73
2022-12-03T06:41:17.967Z,101371.41
2022-12-03T06:43:45.663Z,101372.64
2022-12-03T06:46:13.218Z,101374.33
2022-12-03T06:48:40.750Z,101374.95
2022-12-03T06:51:08.276Z,101374.88
2022-12-03T06:53:35.795Z,101375.14
2022-12-03T06:56:03.387Z,101377.46
2022-12-03T06:58:30.917Z,101378.75
2022-12-03T07:00:58.372Z,101376.84
2022-12-03T07:03:25.915Z,101374.17
2022-12-03T07:05:53.584Z,101373.48
2022-12-03T07:08:21.127Z,101369.83
2022-12-03T07:10:48.736Z,101370.05
2022-12-03T07:13:16.384Z,101368.70
2022-12-03T07:15:43.888Z,101370.04
2022-12-03T07:18:11.423Z,101369.95
2022-12-03T07:20:39.284Z,101367.52
2022-12-03T07:23:06.772Z,101364.34
2022-12-03T07:25:34.249Z,101363.60
2022-12-03T07:28:01.759Z,101362.89
2022-12-03T07:30:29.846Z,101362.29
2022-12-03T07:32:57.394Z,101360.77
2022-12-03T07:35:24.930Z,101365.20
2022-12-03T07:37:52.449Z,101365.69
2022-12-03T07:40:19.902Z,101365.52
2022-12-03T07:42:47.396Z,101367.35
2022-12-03T07:45:14.930Z,101367.81
2022-12-03T07:47:42.385Z,101369.31
2022-12-03T07:50:10.553Z,101373.04
2022-12-03T07:52:38.046Z,101368.33
2022-12-03T07:55:06.324Z,101371.83
2022-12-03T07:57:33.802Z,101370.56
2022-12-03T08:00:01.674Z,101373.02
2022-12-03T08:02:29.314Z,101373.60
2022-12-03T08:04:57.195Z,101371.09
2022-12-03T08:07:24.842Z,101367.41
2022-12-03T08:09:52.407Z,101364.79
2022-12-03T08:12:44.497Z,101357.27
2022-12-03T08:15:16.434Z,101360.34
2022-12-03T08:17:45.934Z,101355.21
2022-12-03T08:20:19.564Z,101353.80
2022-12-03T08:22:50.025Z,101353.94
2022-12-03T08:25:21.233Z,101354.08
2022-12-03T08:27:49.150Z,101350.45
2022-12-03T08:30:18.043Z,101351.98
2022-12-03T08:32:45.830Z,101349.98
2022-12-03T08:35:19.040Z,101351.39
2022-12-03T08:37:46.537Z,101352.48
2022-12-03T08:40:35.275Z,101351.79
2022-12-03T08:43:11.904Z,101353.70
2022-12-03T08:45:42.455Z,101352.09
2022-12-03T08:48:24.337Z,101353.14
2022-12-03T08:50:54.709Z,101351.89
2022-12-03T08:53:30.227Z,101350.86
2022-12-03T08:56:20.661Z,101347.98
2022-12-03T08:59:00.568Z,101347.99
2022-12-03T09:01:31.360Z,101349.89
2022-12-03T09:04:16.940Z,101348.96
2022-12-03T09:06:44.521Z,101346.70
2022-12-03T09:09:11.993Z,101347.33
2022-12-03T09:11:39.847Z,101344.99
2022-12-03T09:14:07.329Z,101344.98
2022-12-03T09:16:35.214Z,101344.85
2022-12-03T09:19:02.814Z,101341.48
2022-12-03T09:21:30.281Z,101343.61
2022-12-03T09:23:57.788Z,101342.63
2022-12-03T09:26:25.372Z,101341.37
2022-12-03T09:28:53.152Z,101342.20
2022-12-03T09:31:20.772Z,101338.47
2022-12-03T09:33:48.807Z,101330.70
2022-12-03T09:36:16.289Z,101331.52
2022-12-03T09:38:47.613Z,101338.17
2022-12-03T09:41:15.480Z,101331.05
2022-12-03T09:44:03.135Z,101333.36
2022-12-03T09:46:31.418Z,101327.58
2022-12-03T09:49:00.995Z,101331.40
2022-12-03T09:51:32.996Z,101330.23
2022-12-03T09:54:03.691Z,101330.46
2022-12-03T09:56:31.764Z,101330.16
2022-12-03T09:58:59.669Z,101327.64
2022-12-03T10:01:30.319Z,101321.23
2022-12-03T10:03:58.678Z,101320.94
2022-12-03T10:06:26.294Z,101320.98
2022-12-03T10:08:55.452Z,101316.11
2022-12-03T10:11:25.367Z,101317.59
2022-12-03T10:13:56.003Z,101317.75
2022-12-03T10:16:24.776Z,101315.33
2022-12-03T10:18:55.922Z,101314.00
2022-12-03T10:21:36.397Z,101313.83
2022-12-03T10:24:25.922Z,101311.33
2022-12-03T10:26:56.505Z,101312.41
2022-12-03T10:29:33.279Z,101310.94
2022-12-03T10:32:03.734Z,101310.84
2022-12-03T10:34:35.808Z,101311.15
2022-12-03T10:37:13.377Z,101311.70
2022-12-03T10:40:09.293Z,101314.10
2022-12-03T10:42:39.922Z,101310.79
2022-12-03T10:45:22.557Z,101308.43
2022-12-03T10:48:13.684Z,101314.64
2022-12-03T10:50:51.082Z,101313.58
2022-12-03T10:53:20.741Z,101311.80
2022-12-03T10:55:51.295Z,101305.63
2022-12-03T10:58:22.972Z,101308.11
2022-12-03T11:00:52.635Z,101305.48
2022-12-03T11:03:23.064Z,101301.04
2022-12-03T11:05:51.956Z,101298.14
2022-12-03T11:08:25.352Z,101295.91
2022-12-03T11:11:00.069Z,101293.90
2022-12-03T11:13:33.778Z,101292.94
2022-12-03T11:16:03.050Z,101288.27
2022-12-03T11:18:36.733Z,101291.14
2022-12-03T11:21:07.887Z,101291.55
2022-12-03T11:23:51.366Z,101288.98
2022-12-03T11:26:38.787Z,101283.91
2022-12-03T11:29:14.346Z,101280.76
2022-12-03T11:31:45.192Z,101273.07
2022-12-03T11:34:19.583Z,101273.81
2022-12-03T11:37:09.220Z,101265.98
2022-12-03T11:39:53.395Z,101252.91
2022-12-03T11:42:25.323Z,101251.98
2022-12-03T11:45:08.921Z,101247.73
2022-12-03T11:47:42.975Z,101244.98
2022-12-03T11:50:39.720Z,101242.20
2022-12-03T11:53:07.765Z,101240.17
2022-12-03T11:55:44.257Z,101238.56
2022-12-03T11:58:29.345Z,101234.92
2022-12-03T12:00:59.003Z,101239.69
2022-12-03T12:03:33.313Z,101236.23
2022-12-03T12:06:08.992Z,101236.35
2022-12-03T12:08:55.608Z,101233.42
2022-12-03T12:11:27.713Z,101230.19
2022-12-03T12:13:58.220Z,101231.93
2022-12-03T12:16:42.308Z,101232.14
2022-12-03T12:19:43.030Z,101233.05
2022-12-03T12:22:27.511Z,101231.33
2022-12-03T12:24:59.220Z,101230.80
2022-12-03T12:27:35.799Z,101231.13
2022-12-03T12:30:21.670Z,101233.89
2022-12-03T12:33:01.632Z,101234.39
2022-12-03T12:35:32.926Z,101233.01
2022-12-03T12:38:06.599Z,101235.70
2022-12-03T12:40:36.540Z,101238.92
2022-12-03T12:43:20.286Z,101237.83
2022-12-03T12:45:53.753Z,101236.71
2022-12-03T12:48:31.930Z,101241.27
2022-12-03T12:50:59.833Z,101242.42
2022-12-03T12:53:32.685Z,101246.94
2022-12-03T12:56:22.452Z,101238.10
2022-12-03T12:58:50.409Z,101233.11
2022-12-03T13:01:27.526Z,101226.13
2022-12-03T13:03:55.568Z,101221.00
2022-12-03T13:06:29.862Z,101220.68
2022-12-03T13:09:00.984Z,101228.40
2022-12-03T13:11:47.388Z,101232.18
2022-12-03T13:14:16.578Z,101227.63
2022-12-03T13:16:45.031Z,101230.63
2022-12-03T13:19:31.134Z,101231.05
2022-12-03T13:22:01.598Z,101232.48
2022-12-03T13:24:36.918Z,101234.36
2022-12-03T13:27:20.393Z,101232.33
2022-12-03T13:29:55.324Z,101233.67
2022-12-03T13:32:22.897Z,101235.98
2022-12-03T13:34:50.571Z,101241.20
2022-12-03T13:37:28.122Z,101239.30
2022-12-03T13:40:05.374Z,101237.09
2022-12-03T13:42:39.040Z,101235.32
2022-12-03T13:45:24.776Z,101238.43
2022-12-03T13:47:58.749Z,101239.84
2022-12-03T13:50:26.164Z,101239.77
2022-12-03T13:52:54.517Z,101242.31
2022-12-03T13:55:29.739Z,101245.60
2022-12-03T13:57:57.692Z,101246.10
2022-12-03T14:00:25.156Z,101245.46
2022-12-03T14:02:52.715Z,101244.01
2022-12-03T14:05:21.124Z,101243.36
2022-12-03T14:07:48.840Z,101243.54
2022-12-03T14:10:16.883Z,101238.60
2022-12-03T14:12:44.335Z,101241.56
2022-12-03T14:15:11.823Z,101244.45
2022-12-03T14:17:39.336Z,101244.95
2022-12-03T14:20:08.199Z,101246.62
2022-12-03T14:22:38.059Z,101240.19
2022-12-03T14:25:06.964Z,101242.88
2022-12-03T14:27:34.848Z,101240.20
2022-12-03T14:30:03.588Z,101239.50
2022-12-03T14:32:31.501Z,101237.83
2022-12-03T14:34:58.994Z,101230.52
2022-12-03T14:37:26.457Z,101234.39
2022-12-03T14:39:54.514Z,101230.70
2022-12-03T14:42:22.279Z,101230.30
2022-12-03T14:44:51.742Z,101229.27
2022-12-03T14:47:22.634Z,101228.30
2022-12-03T14:49:51.144Z,101228.06
2022-12-03T14:52:19.328Z,101230.49
2022-12-03T14:54:46.818Z,101230.66
2022-12-03T14:57:15.325Z,101231.58
2022-12-03T14:59:44.140Z,101231.13
2022-12-03T15:02:12.287Z,101221.64
2022-12-03T15:04:41.420Z,101226.08
2022-12-03T15:07:09.464Z,101227.59
2022-12-03T15:09:37.026Z,101226.17
2022-12-03T15:12:04.847Z,101227.34
2022-12-03T15:14:32.343Z,101231.90
2022-12-03T15:16:59.896Z,101232.30
2022-12-03T15:19:27.469Z,101236.95
2022-12-03T15:21:54.916Z,101240.38
2022-12-03T15:24:22.451Z,101241.59
2022-12-03T15:26:52.120Z,101243.89
2022-12-03T15:29:20.524Z,101244.33
2022-12-03T15:31:48.125Z,101244.09
2022-12-03T15:34:20.604Z,101244.17
2022-12-03T15:36:51.148Z,101244.77
2022-12-03T15:39:19.254Z,101241.94
2022-12-03T15:41:47.063Z,101240.55
2022-12-03T15:44:14.547Z,101237.25
2022-12-03T15:46:42.117Z,101234.61
2022-12-03T15:49:09.779Z,101235.25
2022-12-03T15:51:37.251Z,101233.71
2022-12-03T15:54:05.350Z,101234.92
2022-12-03T15:56:35.598Z,101238.08
2022-12-03T15:59:03.874Z,101238.15
2022-12-03T16:01:31.570Z,101239.67
2022-12-03T16:03:59.206Z,101240.73
2022-12-03T16:06:26.682Z,101240.78
2022-12-03T16:08:54.226Z,101239.23
2022-12-03T16:11:21.837Z,101242.11
2022-12-03T16:13:49.317Z,101239.52
2022-12-03T16:16:16.883Z,101241.98
2022-12-03T16:18:44.455Z,101240.23
2022-12-03T16:21:11.934Z,101235.06
2022-12-03T16:23:39.449Z,101236.27
2022-12-03T16:26:07.179Z,101233.34
2022-12-03T16:28:34.633Z,101236.07
2022-12-03T16:31:02.191Z,101239.39
2022-12-03T16:33:29.771Z,101243.46
2022-12-03T16:35:57.335Z,101244.00
2022-12-03T16:38:24.842Z,101245.63
2022-12-03T16:40:52.429Z,101247.28
2022-12-03T16:43:19.990Z,101246.46
2022-12-03T16:46:03.498Z,101248.83
2022-12-03T16:48:31.144Z,101243.98
2022-12-03T16:50:58.684Z,101249.59
2022-12-03T16:53:26.228Z,101247.67
2022-12-03T16:55:53.688Z,101248.92
2022-12-03T16:58:21.510Z,101248.31
2022-12-03T17:00:49.609Z,101246.38
2022-12-03T17:03:20.074Z,101244.86
2022-12-03T17:05:47.675Z,101239.94
2022-12-03T17:08:16.531Z,101242.70
2022-12-03T17:10:44.547Z,101236.73
2022-12-03T17:13:12.481Z,101239.86
2022-12-03T17:15:40.576Z,101236.96
2022-12-03T17:18:08.557Z,101236.31
2022-12-03T17:20:37.200Z,101238.34
2022-12-03T17:23:04.713Z,101234.04
2022-12-03T17:25:32.757Z,101233.83
2022-12-03T17:28:01.203Z,101238.02
2022-12-03T17:30:28.687Z,101239.66
2022-12-03T17:32:56.483Z,101241.11
2022-12-03T17:35:25.046Z,101245.48
2022-12-03T17:37:52.572Z,101243.23
2022-12-03T17:40:20.130Z,101243.20
2022-12-03T17:42:47.627Z,101241.25
2022-12-03T17:45:15.170Z,101246.29
2022-12-03T17:47:42.650Z,101247.48
2022-12-03T17:50:10.507Z,101245.06
2022-12-03T17:52:37.988Z,101248.64
2022-12-03T17:55:12.791Z,101245.35
2022-12-03T17:57:42.108Z,101246.01
2022-12-03T18:00:10.117Z,101244.46
2022-12-03T18:02:37.656Z,101241.01
2022-12-03T18:05:05.450Z,101240.96
2022-12-03T18:07:33.035Z,101236.80
2022-12-03T18:10:00.803Z,101232.26
2022-12-03T18:12:28.306Z,101232.25
2022-12-03T18:14:55.771Z,101230.48
2022-12-03T18:17:23.263Z,101231.27
2022-12-03T18:19:50.853Z,101228.02
2022-12-03T18:22:19.120Z,101226.65
2022-12-03T18:24:51.491Z,101222.27
2022-12-03T18:27:23.829Z,101224.91
2022-12-03T18:29:51.781Z,101223.77
2022-12-03T18:32:29.388Z,101224.02
2022-12-03T18:34:58.026Z,101224.20
2022-12-03T18:37:27.875Z,101225.04
2022-12-03T18:39:57.573Z,101229.57
2022-12-03T18:42:25.842Z,101226.85
2022-12-03T18:44:55.250Z,101226.84
2022-12-03T18:47:26.609Z,101223.37
2022-12-03T18:49:56.365Z,101222.04
2022-12-03T18:52:25.193Z,101224.27
2022-12-03T18:54:53.194Z,101225.73
2022-12-03T18:57:20.705Z,101222.46
2022-12-03T18:59:48.231Z,101223.81
2022-12-03T19:02:53.704Z,101230.77
2022-12-03T19:05:05.687Z,101230.55
2022-12-03T19:07:33.463Z,101235.18
2022-12-03T19:10:01.088Z,101238.10
2022-12-03T19:12:28.675Z,101236.20
2022-12-03T19:14:56.425Z,101236.38
2022-12-03T19:17:24.224Z,101235.15
2022-12-03T19:19:51.907Z,101233.96
2022-12-03T19:22:19.692Z,101238.23
2022-12-03T19:24:47.175Z,101236.71
2022-12-03T19:27:15.039Z,101239.00
2022-12-03T19:29:42.511Z,101233.88
2022-12-03T19:32:10.043Z,101236.23
2022-12-03T19:34:38.089Z,101239.20
2022-12-03T19:37:05.572Z,101241.86
2022-12-03T19:39:33.171Z,101242.45
2022-12-03T19:42:00.714Z,101241.98
2022-12-03T19:44:28.196Z,101244.17
2022-12-03T19:46:57.170Z,101243.27
2022-12-03T19:49:25.532Z,101244.11
2022-12-03T19:51:53.083Z,101242.20
2022-12-03T19:54:20.598Z,101246.98
2022-12-03T19:56:48.125Z,101247.48
2022-12-03T19:59:15.649Z,101245.89
2022-12-03T20:01:43.683Z,101247.27
2022-12-03T20:04:12.363Z,101247.77
2022-12-03T20:06:40.256Z,101245.20
2022-12-03T20:09:11.954Z,101240.11
2022-12-03T20:11:41.194Z,101243.42
2022-12-03T20:14:12.266Z,101245.52
2022-12-03T20:16:40.000Z,101247.13
2022-12-03T20:19:10.064Z,101243.45
2022-12-03T20:21:38.817Z,101237.90
2022-12-03T20:24:08.449Z,101233.70
2022-12-03T20:26:35.966Z,101231.98
2022-12-03T20:29:03.650Z,101221.16
2022-12-03T20:31:32.303Z,101219.60
2022-12-03T20:34:03.317Z,101221.17
2022-12-03T20:36:32.298Z,101222.75
2022-12-03T20:39:02.762Z,101226.90
2022-12-03T20:41:30.343Z,101228.50
2022-12-03T20:43:57.961Z,101236.08
2022-12-03T20:46:31.045Z,101238.81
2022-12-03T20:48:59.029Z,101238.34
2022-12-03T20:51:29.722Z,101241.77
2022-12-03T20:53:58.566Z,101248.03
2022-12-03T20:56:31.077Z,101252.65
2022-12-03T20:59:04.923Z,101254.30
2022-12-03T21:01:33.202Z,101247.80
2022-12-03T21:04:00.853Z,101241.36
2022-12-03T21:06:29.908Z,101240.17
2022-12-03T21:08:59.026Z,101234.46
2022-12-03T21:11:29.966Z,101227.85
2022-12-03T21:13:58.911Z,101224.84
2022-12-03T21:16:59.412Z,101233.41
2022-12-03T21:19:18.530Z,101229.29
2022-12-03T21:21:46.016Z,101233.48
2022-12-03T21:24:13.868Z,101240.23
2022-12-03T21:26:41.440Z,101241.54
2022-12-03T21:29:09.586Z,101240.77
2022-12-03T21:31:38.388Z,101240.63
2022-12-03T21:34:06.007Z,101240.20
2022-12-03T21:36:33.484Z,101241.16
2022-12-03T21:39:01.079Z,101244.09
2022-12-03T21:41:28.540Z,101240.88
2022-12-03T21:43:56.073Z,101239.02
2022-12-03T21:47:12.204Z,101236.56
2022-12-03T21:49:10.988Z,101237.59
2022-12-03T21:51:38.506Z,101236.27
2022-12-03T21:54:05.980Z,101233.08
2022-12-03T21:56:33.520Z,101234.86
2022-12-03T21:59:01.053Z,101234.55
2022-12-03T22:01:28.637Z,101232.58
2022-12-03T22:03:56.295Z,101232.21
2022-12-03T22:06:23.989Z,101234.77
2022-12-03T22:08:51.706Z,101231.00
2022-12-03T22:11:22.045Z,101230.88
2022-12-03T22:13:49.854Z,101226.28
2022-12-03T22:16:20.047Z,101229.48
2022-12-03T22:18:48.366Z,101229.45
2022-12-03T22:21:19.171Z,101227.60
2022-12-03T22:23:46.707Z,101228.52
2022-12-03T22:26:16.342Z,101225.63
2022-12-03T22:28:45.855Z,101228.23
2022-12-03T22:31:14.337Z,101226.70
2022-12-03T22:33:43.330Z,101228.54
2022-12-03T22:36:18.317Z,101235.21
2022-12-03T22:38:47.843Z,101235.39
2022-12-03T22:41:16.298Z,101233.41
2022-12-03T22:43:45.123Z,101235.34
2022-12-03T22:46:13.514Z,101229.66
2022-12-03T22:48:43.095Z,101221.45
2022-12-03T22:51:23.256Z,101225.48
2022-12-03T22:53:55.604Z,101224.45
2022-12-03T22:56:24.427Z,101226.27
2022-12-03T22:58:51.980Z,101224.49
2022-12-03T23:01:37.762Z,101220.65
2022-12-03T23:04:06.598Z,101218.10
2022-12-03T23:06:36.402Z,101215.91
2022-12-03T23:09:06.114Z,101211.31
2022-12-03T23:11:34.376Z,101217.54
2022-12-03T23:14:02.334Z,101218.99
2022-12-03T23:16:33.040Z,101219.71
2022-12-03T23:19:02.790Z,101219.86
2022-12-03T23:21:33.069Z,101220.34
2022-12-03T23:24:02.590Z,101218.94
2022-12-03T23:26:30.192Z,101213.58
2022-12-03T23:28:57.666Z,101212.39
2022-12-03T23:31:29.547Z,101215.68
2022-12-03T23:33:58.663Z,101218.48
2022-12-03T23:36:29.280Z,101211.17
2022-12-03T23:38:56.907Z,101212.48
2022-12-03T23:41:24.956Z,101210.06
2022-12-03T23:43:53.077Z,101205.07
2022-12-03T23:46:26.105Z,101205.45
2022-12-03T23:48:54.393Z,101201.88
2022-12-03T23:51:24.501Z,101201.52
2022-12-03T23:53:54.176Z,101198.92
2022-12-03T23:56:25.402Z,101195.30
2022-12-03T23:58:52.959Z,101192.48
